Time;durP1;ratioP1;P1;durP2;ratioP2;P2;SDS_P1;SDS_P2;PMS_P1;PMS_P2;Temp;Humidity;BMP_temperature;BMP_pressure;BME280_temperature;BME280_humidity;BME280_pressure;Samples;Min_cycle;Max_cycle;Signal;HPM_P1;HPM_P2
2023/02/12 00:00:41;;;;;;;41.90;35.67;;;7.00;99.90;;;;;;4992810;28;20038;-83
2023/02/12 00:03:07;;;;;;;39.93;34.23;;;6.90;99.90;;;;;;4960296;28;20030;-83
2023/02/12 00:05:33;;;;;;;45.80;36.33;;;6.90;99.90;;;;;;4975970;28;20038;-83
2023/02/12 00:07:59;;;;;;;46.70;35.73;;;6.90;99.90;;;;;;4961703;28;20039;-83
2023/02/12 00:10:25;;;;;;;42.07;35.47;;;6.90;99.90;;;;;;4956188;28;20042;-83
2023/02/12 00:12:54;;;;;;;47.73;35.87;;;6.80;99.90;;;;;;4972715;28;20091;-83
2023/02/12 00:15:20;;;;;;;43.27;38.20;;;6.80;99.90;;;;;;4972061;28;20038;-83
2023/02/12 00:17:46;;;;;;;51.17;39.80;;;6.60;99.90;;;;;;4956157;28;20038;-83
2023/02/12 00:20:13;;;;;;;43.73;38.97;;;6.30;99.90;;;;;;4975330;28;20488;-83
2023/02/12 00:22:39;;;;;;;45.60;40.67;;;6.10;99.90;;;;;;4993213;28;20046;-83
2023/02/12 00:25:05;;;;;;;44.13;38.77;;;5.90;99.90;;;;;;4975307;28;20444;-83
2023/02/12 00:27:32;;;;;;;46.47;41.30;;;5.80;99.90;;;;;;4992951;28;20030;-83
2023/02/12 00:29:58;;;;;;;49.83;40.97;;;5.70;99.90;;;;;;4959945;28;20034;-83
2023/02/12 00:32:24;;;;;;;43.87;38.37;;;5.70;99.90;;;;;;4992537;28;20035;-82
2023/02/12 00:34:50;;;;;;;47.53;40.63;;;5.60;99.90;;;;;;4993059;28;20053;-83
2023/02/12 00:37:16;;;;;;;50.73;40.80;;;5.70;99.90;;;;;;4975568;28;20026;-83
2023/02/12 00:39:42;;;;;;;51.23;42.13;;;5.60;99.90;;;;;;4992669;28;20060;-83
2023/02/12 00:42:09;;;;;;;46.20;41.13;;;5.60;99.90;;;;;;4959479;28;20042;-83
2023/02/12 00:44:35;;;;;;;47.03;39.27;;;5.60;99.90;;;;;;4992892;28;20037;-83
2023/02/12 00:47:01;;;;;;;46.50;39.37;;;5.60;99.90;;;;;;4958972;28;20510;-83
2023/02/12 00:49:32;;;;;;;49.70;40.33;;;5.50;99.90;;;;;;4975775;28;20022;-83
2023/02/12 00:52:00;;;;;;;48.90;37.70;;;5.50;99.90;;;;;;4976151;28;20038;-83
2023/02/12 00:54:27;;;;;;;46.33;38.17;;;5.50;99.90;;;;;;4974671;28;20389;-83
2023/02/12 00:56:54;;;;;;;46.93;38.30;;;5.40;99.90;;;;;;4959468;28;20035;-83
2023/02/12 00:59:24;;;;;;;44.10;36.07;;;5.40;99.90;;;;;;4992816;28;20023;-83
2023/02/12 01:01:50;;;;;;;43.13;35.77;;;5.30;99.90;;;;;;4974878;28;20038;-83
2023/02/12 01:04:16;;;;;;;45.37;37.87;;;5.20;99.90;;;;;;4978051;28;20038;-83
2023/02/12 01:06:43;;;;;;;40.37;35.70;;;5.20;99.90;;;;;;4974984;28;20366;-83
2023/02/12 01:09:09;;;;;;;44.13;38.67;;;5.20;99.90;;;;;;4976305;28;20034;-83
2023/02/12 01:11:35;;;;;;;48.17;38.47;;;5.20;99.90;;;;;;4975378;28;20023;-83
2023/02/12 01:14:01;;;;;;;38.73;34.43;;;5.10;99.90;;;;;;4959300;28;20396;-83
2023/02/12 01:16:27;;;;;;;43.57;36.43;;;5.10;99.90;;;;;;4976001;28;20066;-83
2023/02/12 01:18:54;;;;;;;42.30;34.70;;;5.00;99.90;;;;;;4959276;28;20384;-83
2023/02/12 01:21:22;;;;;;;45.30;36.20;;;4.90;99.90;;;;;;4969974;28;20050;-83
2023/02/12 01:23:48;;;;;;;43.23;35.40;;;5.00;99.90;;;;;;4995592;28;20106;-83
2023/02/12 01:26:15;;;;;;;38.63;34.57;;;5.00;99.90;;;;;;4962329;28;20038;-83
2023/02/12 01:28:42;;;;;;;41.57;33.80;;;5.00;99.90;;;;;;4978614;28;20485;-83
2023/02/12 01:31:12;;;;;;;41.23;33.40;;;5.00;99.90;;;;;;4995431;28;20034;-83
2023/02/12 01:33:38;;;;;;;38.63;33.55;;;5.10;99.90;;;;;;4979172;28;20034;-83
2023/02/12 01:36:05;;;;;;;38.53;32.07;;;5.10;99.90;;;;;;4961710;28;20368;-83
2023/02/12 01:38:31;;;;;;;35.93;30.57;;;5.00;99.90;;;;;;4995435;28;20513;-83
2023/02/12 01:41:09;;;;;;;44.27;33.10;;;4.90;99.90;;;;;;4995653;28;20053;-83
2023/02/12 01:43:35;;;;;;;42.83;33.13;;;4.90;99.90;;;;;;4962304;28;20451;-83
2023/02/12 01:46:01;;;;;;;43.93;33.00;;;4.90;99.90;;;;;;4977981;28;20476;-83
2023/02/12 01:48:31;;;;;;;40.07;32.23;;;5.10;99.90;;;;;;4994964;28;20034;-83
2023/02/12 01:50:57;;;;;;;38.80;32.10;;;5.10;99.90;;;;;;4978191;28;20026;-83
2023/02/12 01:53:25;;;;;;;44.90;34.23;;;5.20;99.90;;;;;;4961639;28;20038;-83
2023/02/12 01:55:53;;;;;;;40.67;33.00;;;5.20;99.90;;;;;;4945850;28;20053;-84
2023/02/12 01:58:20;;;;;;;36.10;30.47;;;5.30;99.90;;;;;;4961986;28;20045;-84
2023/02/12 02:00:46;;;;;;;38.80;33.73;;;5.40;99.90;;;;;;4961729;28;20031;-83
2023/02/12 02:03:12;;;;;;;39.93;34.30;;;5.30;99.90;;;;;;4995430;28;20042;-84
2023/02/12 02:05:47;;;;;;;44.40;35.80;;;5.30;99.90;;;;;;4961814;28;20495;-84
2023/02/12 02:08:13;;;;;;;40.30;35.70;;;5.40;99.90;;;;;;4979302;28;20042;-84
2023/02/12 02:10:39;;;;;;;38.33;34.20;;;5.50;99.90;;;;;;4974675;28;20027;-84
2023/02/12 02:15:51;;;;;;;39.43;33.90;;;5.60;99.90;;;;;;4964130;28;20050;-84
2023/02/12 02:18:30;;;;;;;37.50;32.73;;;5.70;99.90;;;;;;4958309;28;20026;-84
2023/02/12 02:21:29;;;;;;;39.83;31.67;;;5.80;99.90;;;;;;4981275;28;20400;-84
2023/02/12 02:24:21;;;;;;;37.77;33.27;;;5.90;99.90;;;;;;4922025;29;20488;-84
2023/02/12 02:26:57;;;;;;;39.63;33.27;;;5.90;99.90;;;;;;4937945;29;20035;-84
2023/02/12 02:30:00;;;;;;;41.53;34.17;;;5.80;99.90;;;;;;4938706;29;20397;-84
2023/02/12 02:32:29;;;;;;;36.77;29.90;;;5.90;99.90;;;;;;4953384;28;20038;-83
2023/02/12 02:35:00;;;;;;;38.10;34.03;;;5.60;99.90;;;;;;4937647;29;20047;-83
2023/02/12 02:37:48;;;;;;;43.47;33.40;;;5.30;99.90;;;;;;4937712;29;20035;-83
2023/02/12 02:40:19;;;;;;;41.57;31.30;;;5.40;99.90;;;;;;4921693;28;20440;-83
2023/02/12 02:42:47;;;;;;;;;;;5.30;99.90;;;;;;4938116;29;20358;-82
2023/02/12 02:45:37;;;;;;;40.07;31.53;;;5.30;99.90;;;;;;4937325;28;19918;-83
2023/02/12 02:48:17;;;;;;;35.63;31.83;;;5.30;99.90;;;;;;4953632;29;20050;-83
2023/02/12 02:50:50;;;;;;;37.07;30.13;;;5.30;99.90;;;;;;4938957;29;20035;-83
2023/02/12 02:53:27;;;;;;;35.57;31.77;;;5.40;99.90;;;;;;4938128;29;20529;-83
2023/02/12 02:55:53;;;;;;;40.30;32.20;;;5.40;99.90;;;;;;4921306;29;20043;-83
2023/02/12 02:58:25;;;;;;;41.87;34.83;;;5.40;99.90;;;;;;4937026;29;20058;-83
2023/02/12 03:01:14;;;;;;;42.50;35.73;;;5.30;99.90;;;;;;4933278;28;20051;-83
2023/02/12 03:04:00;;;;;;;42.20;34.47;;;5.30;99.90;;;;;;4965887;28;20031;-83
2023/02/12 03:07:00;;;;;;;42.57;33.27;;;5.30;99.90;;;;;;4933931;28;20038;-83
2023/02/12 03:09:30;;;;;;;39.67;31.83;;;5.20;99.90;;;;;;4939077;28;20039;-83
2023/02/12 03:12:00;;;;;;;42.20;31.27;;;5.00;99.90;;;;;;4937073;29;20109;-83
2023/02/12 03:14:31;;;;;;;39.73;30.33;;;4.90;99.90;;;;;;4925113;28;20034;-83
2023/02/12 03:16:58;;;;;;;;;;;4.70;99.90;;;;;;4955805;28;20504;-83
2023/02/12 03:19:26;;;;;;;40.47;30.70;;;4.60;99.90;;;;;;4954924;28;20545;-83
2023/02/12 03:22:00;;;;;;;34.20;27.80;;;4.60;99.90;;;;;;4970168;28;20042;-83
2023/02/12 03:24:39;;;;;;;39.83;28.90;;;4.60;99.90;;;;;;4942556;28;20053;-83
2023/02/12 03:27:25;;;;;;;39.40;29.67;;;4.50;99.90;;;;;;4970792;28;20364;-83
2023/02/12 03:29:51;;;;;;;37.00;30.10;;;4.50;99.90;;;;;;4971291;28;20041;-84
2023/02/12 03:32:26;;;;;;;44.27;30.57;;;4.60;99.90;;;;;;4970579;28;20046;-83
2023/02/12 03:35:14;;;;;;;42.23;29.77;;;4.60;99.90;;;;;;4970740;28;20035;-83
2023/02/12 03:38:17;;;;;;;32.43;24.37;;;4.50;99.90;;;;;;4981229;28;20054;-82
2023/02/12 03:40:51;;;;;;;38.73;28.53;;;4.50;99.90;;;;;;4959762;28;20043;-82
2023/02/12 03:43:26;;;;;;;34.57;26.63;;;4.50;99.90;;;;;;4956827;28;20503;-83
2023/02/12 03:46:13;;;;;;;27.70;23.93;;;4.50;99.90;;;;;;4956434;28;20400;-83
2023/02/12 03:49:02;;;;;;;39.77;29.87;;;4.40;99.90;;;;;;4972495;28;20042;-83
2023/02/12 03:51:33;;;;;;;39.17;29.73;;;4.40;99.90;;;;;;4956699;28;20034;-82
2023/02/12 03:54:00;;;;;;;41.47;29.00;;;4.40;99.90;;;;;;4940801;28;20046;-83
2023/02/12 03:56:36;;;;;;;43.70;30.23;;;4.50;99.90;;;;;;4972634;28;20361;-83
2023/02/12 03:59:03;;;;;;;45.10;34.53;;;4.50;99.90;;;;;;4956722;28;20018;-83
2023/02/12 04:01:30;;;;;;;34.37;27.17;;;4.50;99.90;;;;;;4956109;28;20054;-83
2023/02/12 04:03:56;;;;;;;23.40;19.20;;;4.50;99.90;;;;;;4956393;28;20030;-83
2023/02/12 04:06:24;;;;;;;37.93;29.70;;;4.40;99.90;;;;;;4956377;28;20105;-83
2023/02/12 04:08:50;;;;;;;45.80;30.93;;;4.40;99.90;;;;;;4973859;28;20023;-82
2023/02/12 04:11:23;;;;;;;32.00;25.67;;;4.40;99.90;;;;;;4956557;28;20035;-82
2023/02/12 04:13:57;;;;;;;28.50;23.37;;;4.40;99.90;;;;;;4972510;28;20042;-82
2023/02/12 04:16:57;;;;;;;41.27;30.43;;;4.40;99.90;;;;;;4972634;28;20415;-83
2023/02/12 04:19:44;;;;;;;23.67;20.80;;;4.40;99.90;;;;;;4933199;29;20027;-83
2023/02/12 04:22:25;;;;;;;30.90;22.87;;;4.40;99.90;;;;;;4919621;29;20040;-82
2023/02/12 04:24:54;;;;;;;40.10;30.30;;;4.40;99.90;;;;;;4932991;29;20039;-82
2023/02/12 04:27:23;;;;;;;41.83;28.10;;;4.30;99.90;;;;;;4933182;29;20039;-82
2023/02/12 04:29:59;;;;;;;29.70;23.27;;;4.30;99.90;;;;;;4932917;29;20047;-82
2023/02/12 04:32:41;;;;;;;37.10;26.77;;;4.30;99.90;;;;;;4915440;29;20032;-82
2023/02/12 04:35:34;;;;;;;46.13;31.67;;;4.30;99.90;;;;;;4932838;29;20040;-82
2023/02/12 04:38:10;;;;;;;33.63;23.50;;;4.40;99.90;;;;;;4917846;29;20067;-82
2023/02/12 04:40:38;;;;;;;41.53;31.23;;;4.30;99.90;;;;;;4936653;29;20124;-82
2023/02/12 04:43:04;;;;;;;38.23;29.20;;;4.30;99.90;;;;;;4936531;29;20044;-82
2023/02/12 04:45:32;;;;;;;21.80;17.90;;;4.30;99.90;;;;;;4935725;28;20027;-82
2023/02/12 04:47:58;;;;;;;42.50;30.00;;;4.30;99.90;;;;;;4920433;29;20036;-82
2023/02/12 04:50:24;;;;;;;39.13;25.23;;;4.30;99.90;;;;;;4920210;29;20090;-83
2023/02/12 04:52:51;;;;;;;43.30;31.50;;;4.30;99.90;;;;;;4936424;29;20035;-82
2023/02/12 04:55:17;;;;;;;41.77;30.03;;;4.20;99.90;;;;;;4929835;28;20039;-82
2023/02/12 04:57:43;;;;;;;45.63;32.50;;;4.20;99.90;;;;;;4959810;28;20026;-82
2023/02/12 05:00:11;;;;;;;45.67;33.10;;;4.10;99.90;;;;;;4958996;28;20023;-83
2023/02/12 05:02:37;;;;;;;46.33;31.17;;;4.10;99.90;;;;;;4943659;28;20031;-83
2023/02/12 05:05:04;;;;;;;48.77;32.63;;;4.20;99.90;;;;;;4943921;28;20035;-83
2023/02/12 05:07:30;;;;;;;48.07;34.27;;;4.20;99.90;;;;;;4976658;28;20038;-83
2023/02/12 05:09:56;;;;;;;45.97;32.70;;;4.30;99.90;;;;;;4975654;28;20027;-82
2023/02/12 05:12:22;;;;;;;45.03;32.67;;;4.30;99.90;;;;;;4975454;28;20034;-83
2023/02/12 05:14:48;;;;;;;47.77;32.87;;;4.30;99.90;;;;;;4942832;28;20031;-82
2023/02/12 05:17:14;;;;;;;45.10;34.07;;;4.40;99.90;;;;;;4975195;28;20047;-83
2023/02/12 05:19:40;;;;;;;42.90;30.27;;;4.40;99.90;;;;;;4975443;28;20066;-82
2023/02/12 05:22:06;;;;;;;43.77;29.23;;;4.30;99.90;;;;;;4959558;28;20035;-82
2023/02/12 05:24:32;;;;;;;37.57;28.53;;;4.10;99.90;;;;;;4996064;28;20030;-82
2023/02/12 05:26:58;;;;;;;64.63;32.33;;;4.00;99.90;;;;;;4995881;28;20026;-82
2023/02/12 05:29:25;;;;;;;44.50;31.73;;;4.00;99.90;;;;;;4995654;28;20046;-82
2023/02/12 05:31:51;;;;;;;45.97;29.47;;;4.10;99.90;;;;;;4978170;28;20372;-82
2023/02/12 05:34:17;;;;;;;44.10;32.43;;;4.10;99.90;;;;;;4995936;28;20045;-82
2023/02/12 05:36:43;;;;;;;44.50;33.33;;;4.10;99.90;;;;;;4978327;28;20476;-82
2023/02/12 05:39:09;;;;;;;38.47;28.83;;;4.10;99.90;;;;;;4978510;28;20037;-82
2023/02/12 05:41:35;;;;;;;48.17;30.27;;;4.00;99.90;;;;;;4978199;28;20378;-82
2023/02/12 05:44:02;;;;;;;42.73;28.23;;;4.00;99.90;;;;;;4995316;28;20029;-82
2023/02/12 05:46:28;;;;;;;39.57;29.77;;;4.00;99.90;;;;;;4945582;28;20522;-82
2023/02/12 05:48:54;;;;;;;35.23;27.03;;;4.00;99.90;;;;;;4977811;28;20030;-82
2023/02/12 05:51:22;;;;;;;26.30;20.97;;;3.90;99.90;;;;;;4978239;28;20074;-82
2023/02/12 05:53:49;;;;;;;51.87;27.63;;;3.90;99.90;;;;;;4995056;28;20049;-82
2023/02/12 05:56:20;;;;;;;41.70;30.53;;;3.80;99.90;;;;;;4977995;28;20034;-82
2023/02/12 05:58:48;;;;;;;40.10;27.35;;;3.80;99.90;;;;;;4961840;28;20380;-82
2023/02/12 06:01:25;;;;;;;35.37;26.53;;;3.80;99.90;;;;;;4961469;28;20034;-82
2023/02/12 06:03:51;;;;;;;40.13;30.70;;;3.70;99.90;;;;;;4946565;28;20034;-82
2023/02/12 06:06:17;;;;;;;21.20;18.67;;;3.70;99.90;;;;;;4977455;28;20038;-82
2023/02/12 06:08:43;;;;;;;35.80;25.60;;;3.70;99.90;;;;;;4975784;28;20436;-82
2023/02/12 06:11:12;;;;;;;28.50;21.03;;;3.70;99.90;;;;;;4958357;28;20039;-82
2023/02/12 06:13:38;;;;;;;21.97;18.70;;;3.70;99.90;;;;;;4974126;28;20035;-82
2023/02/12 06:16:05;;;;;;;22.40;18.93;;;3.70;99.90;;;;;;4957592;28;20046;-82
2023/02/12 06:18:33;;;;;;;35.97;27.40;;;3.70;99.90;;;;;;4974256;28;20404;-82
2023/02/12 06:21:01;;;;;;;37.53;26.63;;;3.70;99.90;;;;;;4982258;28;20073;-82
2023/02/12 06:23:27;;;;;;;30.20;24.23;;;3.60;99.90;;;;;;4977894;28;20073;-81
2023/02/12 06:25:55;;;;;;;44.07;32.43;;;3.60;99.90;;;;;;4961461;28;20026;-82
2023/02/12 06:28:21;;;;;;;23.30;20.67;;;3.60;99.90;;;;;;4977111;28;20043;-82
2023/02/12 06:30:47;;;;;;;33.00;26.93;;;3.60;99.90;;;;;;4977093;28;20034;-82
2023/02/12 06:33:13;;;;;;;33.03;27.47;;;3.60;99.90;;;;;;4994747;28;20026;-82
2023/02/12 06:35:39;;;;;;;39.67;31.70;;;3.60;99.90;;;;;;4977376;28;20030;-82
2023/02/12 06:38:05;;;;;;;37.17;27.30;;;3.60;99.90;;;;;;4994528;28;20030;-82
2023/02/12 06:40:32;;;;;;;26.63;23.83;;;3.60;99.90;;;;;;4961323;28;20023;-83
2023/02/12 06:42:58;;;;;;;28.77;25.43;;;3.60;99.90;;;;;;4960490;28;20045;-82
2023/02/12 06:45:24;;;;;;;41.57;30.27;;;3.60;99.90;;;;;;4976737;28;20035;-82
2023/02/12 06:47:50;;;;;;;34.33;26.27;;;3.60;99.90;;;;;;4961058;28;20034;-82
2023/02/12 06:50:17;;;;;;;42.23;32.57;;;3.70;99.90;;;;;;4976961;28;20030;-83
2023/02/12 06:52:43;;;;;;;40.80;31.37;;;3.70;99.90;;;;;;4976971;28;20463;-83
2023/02/12 06:55:09;;;;;;;44.63;32.60;;;3.70;99.90;;;;;;4976921;28;20041;-83
2023/02/12 06:57:35;;;;;;;35.17;26.73;;;3.70;99.90;;;;;;4993755;28;20042;-83
2023/02/12 07:00:01;;;;;;;30.33;25.40;;;3.70;99.90;;;;;;4976758;28;20031;-82
2023/02/12 07:02:27;;;;;;;39.33;31.47;;;3.70;99.90;;;;;;4959882;28;20045;-82
2023/02/12 07:04:53;;;;;;;43.97;32.37;;;3.70;99.90;;;;;;4976958;28;20472;-83
2023/02/12 07:07:19;;;;;;;44.53;32.37;;;3.70;99.90;;;;;;4967884;28;20038;-83
2023/02/12 07:09:45;;;;;;;38.83;29.00;;;3.80;99.90;;;;;;4973436;28;20469;-82
2023/02/12 07:12:11;;;;;;;30.70;25.53;;;3.80;99.90;;;;;;4973110;28;20046;-82
2023/02/12 07:14:38;;;;;;;34.57;28.27;;;3.80;99.90;;;;;;4973456;28;20030;-82
2023/02/12 07:17:04;;;;;;;30.20;24.03;;;3.80;99.90;;;;;;4956616;28;20053;-83
2023/02/12 07:19:30;;;;;;;21.93;19.27;;;3.80;99.90;;;;;;4957167;28;20043;-82
2023/02/12 07:21:56;;;;;;;22.97;20.53;;;3.80;99.90;;;;;;4972820;28;20057;-83
2023/02/12 07:24:22;;;;;;;38.83;32.33;;;3.80;99.90;;;;;;4976241;28;20038;-82
2023/02/12 07:26:48;;;;;;;24.70;22.03;;;3.80;99.90;;;;;;4993430;28;20061;-84
2023/02/12 07:29:14;;;;;;;37.90;28.30;;;3.90;99.90;;;;;;4993779;28;20030;-82
2023/02/12 07:31:40;;;;;;;47.27;34.93;;;3.90;99.90;;;;;;4959514;28;20053;-82
2023/02/12 07:34:07;;;;;;;25.27;22.70;;;3.90;99.90;;;;;;4976396;28;20026;-82
2023/02/12 07:36:33;;;;;;;23.97;20.43;;;3.90;99.90;;;;;;4976287;28;20065;-82
2023/02/12 07:39:00;;;;;;;43.67;32.40;;;3.90;99.90;;;;;;4976378;28;20026;-82
2023/02/12 07:41:33;;;;;;;45.00;33.00;;;3.90;99.90;;;;;;4993103;28;20364;-82
2023/02/12 07:44:03;;;;;;;46.27;33.90;;;4.00;99.90;;;;;;4993531;28;20379;-82
2023/02/12 07:46:30;;;;;;;48.87;29.97;;;4.00;99.90;;;;;;4975987;28;20339;-82
2023/02/12 07:48:57;;;;;;;40.97;31.83;;;4.00;99.90;;;;;;4960121;28;20392;-82
2023/02/12 07:51:24;;;;;;;45.47;31.73;;;4.00;99.90;;;;;;4976222;28;20034;-82
2023/02/12 07:53:50;;;;;;;41.27;30.67;;;4.00;99.90;;;;;;4959726;28;20042;-82
2023/02/12 07:56:21;;;;;;;42.90;32.53;;;4.10;99.90;;;;;;4975800;28;20042;-82
2023/02/12 07:58:48;;;;;;;30.20;25.35;;;4.10;99.90;;;;;;4993352;28;20030;-82
2023/02/12 08:01:16;;;;;;;43.17;31.83;;;4.10;99.90;;;;;;4975537;28;20030;-82
2023/02/12 08:03:43;;;;;;;49.17;35.00;;;4.10;99.90;;;;;;4960116;28;20026;-82
2023/02/12 08:06:11;;;;;;;51.03;34.63;;;4.10;99.90;;;;;;4959710;28;20038;-81
2023/02/12 08:08:40;;;;;;;35.53;28.27;;;4.20;99.90;;;;;;4973769;28;20034;-82
2023/02/12 08:11:07;;;;;;;35.63;28.40;;;4.20;99.90;;;;;;4973612;28;20027;-82
2023/02/12 08:13:34;;;;;;;34.23;27.60;;;4.20;99.90;;;;;;4978353;28;20042;-82
2023/02/12 08:16:01;;;;;;;40.70;31.83;;;4.20;99.90;;;;;;4978440;28;20507;-82
2023/02/12 08:18:29;;;;;;;36.43;28.13;;;4.30;99.90;;;;;;4978896;28;20035;-81
2023/02/12 08:20:55;;;;;;;49.50;32.90;;;4.30;99.90;;;;;;4970245;28;20039;-82
2023/02/12 08:23:21;;;;;;;43.30;33.70;;;4.30;99.90;;;;;;4982059;28;20403;-82
2023/02/12 08:25:47;;;;;;;40.87;33.23;;;4.40;99.90;;;;;;4982324;28;20034;-82
2023/02/12 08:28:13;;;;;;;35.27;29.13;;;4.40;99.90;;;;;;4982349;28;20037;-82
2023/02/12 08:30:39;;;;;;;33.93;30.10;;;4.40;99.90;;;;;;4965467;28;20027;-82
2023/02/12 08:33:05;;;;;;;34.60;26.80;;;4.40;99.90;;;;;;4982033;28;20038;-82
2023/02/12 08:35:31;;;;;;;32.30;26.53;;;4.40;99.90;;;;;;4966076;28;20026;-82
2023/02/12 08:37:57;;;;;;;23.87;21.57;;;4.50;99.90;;;;;;4981926;28;20037;-82
2023/02/12 08:40:23;;;;;;;26.87;22.30;;;4.40;99.90;;;;;;4999651;28;20023;-82
2023/02/12 08:42:51;;;;;;;36.23;31.27;;;4.50;99.90;;;;;;4981926;28;20033;-82
2023/02/12 08:45:17;;;;;;;38.33;32.47;;;4.50;99.90;;;;;;4998900;28;20026;-82
2023/02/12 08:47:43;;;;;;;46.87;35.20;;;4.50;99.90;;;;;;4981851;28;20026;-82
2023/02/12 08:50:10;;;;;;;44.67;34.10;;;4.50;99.90;;;;;;4965766;28;20038;-82
2023/02/12 08:52:36;;;;;;;42.57;34.80;;;4.60;99.90;;;;;;4949653;28;20042;-82
2023/02/12 08:55:02;;;;;;;46.83;34.80;;;4.60;99.90;;;;;;4965654;28;20046;-82
2023/02/12 08:57:28;;;;;;;44.13;35.40;;;4.70;99.90;;;;;;4998800;28;20051;-82
2023/02/12 08:59:54;;;;;;;41.53;33.67;;;4.80;99.90;;;;;;4999237;28;20042;-82
2023/02/12 09:02:20;;;;;;;46.10;36.70;;;4.80;99.90;;;;;;4998856;28;20151;-82
2023/02/12 09:04:46;;;;;;;30.97;24.77;;;4.90;99.90;;;;;;4965879;28;20041;-82
2023/02/12 09:07:12;;;;;;;44.17;30.60;;;4.80;99.90;;;;;;4991237;28;20027;-82
2023/02/12 09:09:38;;;;;;;22.27;17.67;;;4.90;99.90;;;;;;4979863;28;20037;-82
2023/02/12 09:12:04;;;;;;;32.80;25.23;;;4.80;99.90;;;;;;4978677;28;20042;-83
2023/02/12 09:14:31;;;;;;;45.40;30.37;;;4.80;99.90;;;;;;4978701;28;20030;-82
2023/02/12 09:16:57;;;;;;;32.50;25.53;;;4.90;99.90;;;;;;4979049;28;20042;-83
2023/02/12 09:19:24;;;;;;;17.07;15.43;;;4.90;99.90;;;;;;4962177;28;20039;-82
2023/02/12 09:21:54;;;;;;;45.23;30.73;;;4.90;99.90;;;;;;4976771;28;20503;-83
2023/02/12 09:24:20;;;;;;;43.33;30.07;;;4.90;99.90;;;;;;4979052;28;20413;-83
2023/02/12 09:26:46;;;;;;;40.13;29.10;;;4.90;99.90;;;;;;4995747;28;20030;-82
2023/02/12 09:29:12;;;;;;;40.33;31.50;;;5.00;99.90;;;;;;4978633;28;20034;-83
2023/02/12 09:31:38;;;;;;;34.13;27.60;;;5.10;99.90;;;;;;4995506;28;20039;-82
2023/02/12 09:34:05;;;;;;;30.57;26.37;;;5.10;99.90;;;;;;4978767;28;20033;-82
2023/02/12 09:36:31;;;;;;;27.37;20.77;;;5.10;99.90;;;;;;4978195;28;20037;-82
2023/02/12 09:38:58;;;;;;;30.20;24.53;;;5.10;99.90;;;;;;4995800;28;20035;-82
2023/02/12 09:41:24;;;;;;;21.83;19.53;;;5.10;99.90;;;;;;4995798;28;20391;-82
2023/02/12 09:44:01;;;;;;;29.43;19.60;;;5.20;99.90;;;;;;4995714;28;20313;-81
2023/02/12 09:46:59;;;;;;;46.53;31.97;;;5.20;99.90;;;;;;4977407;28;20526;-82
2023/02/12 09:49:38;;;;;;;32.07;26.47;;;5.20;99.90;;;;;;4954697;28;20055;-82
2023/02/12 09:52:04;;;;;;;24.17;20.27;;;5.30;99.90;;;;;;4938404;29;20035;-82
2023/02/12 09:54:36;;;;;;;39.57;29.50;;;5.30;99.90;;;;;;4938896;29;20035;-83
2023/02/12 09:57:06;;;;;;;39.73;29.80;;;5.30;99.90;;;;;;4938720;29;20054;-83
2023/02/12 09:59:38;;;;;;;36.03;27.37;;;5.40;99.90;;;;;;4938790;28;20047;-83
2023/02/12 10:02:11;;;;;;;41.73;31.17;;;5.50;99.90;;;;;;4938485;28;20039;-83
2023/02/12 10:04:37;;;;;;;17.23;15.67;;;5.60;99.90;;;;;;4922840;28;20035;-84
2023/02/12 10:07:11;;;;;;;36.17;28.00;;;5.70;99.90;;;;;;4932241;29;20039;-83
2023/02/12 10:09:58;;;;;;;35.60;28.07;;;5.70;99.90;;;;;;4935145;29;20039;-83
2023/02/12 10:12:36;;;;;;;38.27;25.20;;;5.70;99.90;;;;;;4934974;29;20043;-83
2023/02/12 10:15:14;;;;;;;39.60;28.03;;;5.80;99.90;;;;;;4935251;29;20043;-83
2023/02/12 10:17:53;;;;;;;33.33;29.70;;;5.90;99.90;;;;;;4933780;29;20048;-83
2023/02/12 10:20:31;;;;;;;29.70;25.10;;;6.00;99.90;;;;;;4936541;29;20055;-83
2023/02/12 10:23:34;;;;;;;43.33;30.03;;;6.20;99.90;;;;;;4953901;29;20046;-83
2023/02/12 10:26:13;;;;;;;35.53;29.43;;;6.30;99.90;;;;;;4989755;28;20034;-83
2023/02/12 10:28:40;;;;;;;43.00;32.33;;;6.30;99.90;;;;;;4946593;28;20035;-83
2023/02/12 10:31:34;;;;;;;40.73;31.40;;;6.20;99.90;;;;;;4977158;28;20034;-83
2023/02/12 10:34:00;;;;;;;37.40;28.27;;;6.30;99.90;;;;;;4977289;28;20027;-83
2023/02/12 10:36:32;;;;;;;38.50;29.13;;;6.50;99.90;;;;;;4959994;28;20034;-83
2023/02/12 10:39:01;;;;;;;34.90;27.90;;;6.70;99.90;;;;;;4994606;28;20057;-83
2023/02/12 10:41:28;;;;;;;30.40;24.83;;;6.90;99.90;;;;;;4961204;28;20034;-84
2023/02/12 10:43:55;;;;;;;31.67;25.93;;;7.20;99.90;;;;;;4994715;28;20392;-84
2023/02/12 10:46:21;;;;;;;35.08;28.85;;;7.30;99.90;;;;;;4976740;28;20042;-84
2023/02/12 10:48:48;;;;;;;31.10;24.60;;;7.40;99.90;;;;;;4960920;28;20057;-83
2023/02/12 10:51:23;;;;;;;18.10;16.40;;;7.60;99.90;;;;;;4961158;28;20399;-83
2023/02/12 10:53:49;;;;;;;31.95;26.83;;;7.50;99.90;;;;;;4994356;28;20041;-83
2023/02/12 10:56:18;;;;;;;31.23;23.10;;;7.40;99.90;;;;;;4977119;28;20030;-83
2023/02/12 10:58:51;;;;;;;36.03;26.95;;;7.10;99.90;;;;;;4976810;28;20049;-85
2023/02/12 11:01:34;;;;;;;34.90;25.93;;;7.10;99.90;;;;;;4959897;28;20045;-83
2023/02/12 11:04:17;;;;;;;32.65;26.55;;;7.20;99.90;;;;;;4944299;28;20034;-84
2023/02/12 11:07:03;;;;;;;31.00;22.05;;;7.30;99.90;;;;;;4973024;28;20026;-84
2023/02/12 11:09:34;;;;;;;26.40;21.08;;;7.40;99.90;;;;;;4973767;28;20034;-84
2023/02/12 11:12:01;;;;;;;24.33;20.80;;;7.40;99.90;;;;;;4974610;28;20154;-84
2023/02/12 11:14:27;;;;;;;22.00;19.73;;;7.60;99.90;;;;;;4974525;28;20031;-85
2023/02/12 11:16:57;;;;;;;30.08;25.15;;;7.80;99.90;;;;;;4972381;28;20061;-84
2023/02/12 11:19:25;;;;;;;29.98;26.23;;;7.80;99.90;;;;;;4957219;28;20039;-84
2023/02/12 11:21:52;;;;;;;30.70;25.60;;;7.90;99.90;;;;;;4988374;28;20026;-84
2023/02/12 11:24:27;;;;;;;30.38;26.85;;;8.10;99.90;;;;;;4976401;28;20035;-84
2023/02/12 11:27:10;;;;;;;29.35;26.25;;;8.20;99.90;;;;;;4993952;28;20037;-84
2023/02/12 11:29:36;;;;;;;26.00;23.10;;;8.40;99.90;;;;;;4977821;28;20376;-84
2023/02/12 11:32:07;;;;;;;29.15;25.63;;;8.50;99.90;;;;;;4959697;28;20027;-84
2023/02/12 11:34:33;;;;;;;31.90;26.00;;;8.50;99.90;;;;;;4994252;28;20027;-84
2023/02/12 11:36:59;;;;;;;28.05;24.90;;;8.50;99.90;;;;;;4976159;28;20038;-85
2023/02/12 11:39:27;;;;;;;28.42;25.27;;;8.70;99.90;;;;;;4976423;28;20029;-84
2023/02/12 11:42:00;;;;;;;22.48;20.13;;;8.80;99.90;;;;;;4976177;28;20030;-84
2023/02/12 11:44:31;;;;;;;30.02;25.58;;;8.80;99.90;;;;;;4961297;28;20037;-84
2023/02/12 11:47:02;;;;;;;27.27;23.92;;;8.90;99.90;;;;;;4992445;28;20409;-84
2023/02/12 11:49:33;;;;;;;21.38;19.25;;;9.00;99.90;;;;;;4961105;28;20034;-84
2023/02/12 11:52:00;;;;;;;31.65;26.88;;;8.90;99.90;;;;;;4976216;28;20031;-84
2023/02/12 11:54:28;;;;;;;29.50;26.00;;;9.00;99.90;;;;;;4960139;28;20030;-84
2023/02/12 11:56:54;;;;;;;25.95;21.27;;;9.20;99.90;;;;;;4960024;28;20050;-84
2023/02/12 11:59:26;;;;;;;32.10;27.02;;;9.20;99.90;;;;;;4976145;28;20034;-84
2023/02/12 12:01:53;;;;;;;25.52;22.83;;;9.20;99.90;;;;;;4992548;28;20031;-84
2023/02/12 12:04:19;;;;;;;30.15;25.23;;;9.20;99.90;;;;;;4944024;28;20042;-84
2023/02/12 12:07:29;;;;;;;28.92;23.90;;;9.20;99.90;;;;;;4955859;28;20045;-84
2023/02/12 12:10:03;;;;;;;15.75;14.50;;;9.10;99.90;;;;;;4914104;29;20044;-83
2023/02/12 12:12:32;;;;;;;26.58;23.63;;;9.20;99.90;;;;;;4899152;29;20032;-84
2023/02/12 12:20:54;;;;;;;30.48;25.83;;;9.30;99.90;;;;;;4908656;29;20159;-84
2023/02/12 12:23:45;;;;;;;27.90;23.13;;;9.50;99.90;;;;;;4917700;29;20051;-84
2023/02/12 12:26:20;;;;;;;31.30;26.13;;;9.60;99.90;;;;;;4912311;29;20039;-84
2023/02/12 12:29:00;;;;;;;28.40;25.25;;;9.60;99.90;;;;;;4917533;29;20421;-83
2023/02/12 12:31:35;;;;;;;30.25;27.20;;;9.70;99.90;;;;;;4933613;29;20036;-83
2023/02/12 12:34:08;;;;;;;19.50;17.75;;;9.80;99.90;;;;;;4922807;29;20413;-84
2023/02/12 12:36:50;;;;;;;30.83;24.88;;;9.70;99.90;;;;;;4932891;29;20031;-84
2023/02/12 12:39:34;;;;;;;33.40;25.92;;;9.70;99.90;;;;;;4932939;29;20047;-84
2023/02/12 12:42:30;;;;;;;19.90;17.90;;;9.80;99.90;;;;;;4933166;29;20544;-84
2023/02/12 12:45:16;;;;;;;30.08;26.90;;;10.10;99.90;;;;;;4945758;28;20388;-83
2023/02/12 12:48:16;;;;;;;21.35;19.05;;;10.00;99.90;;;;;;4966231;28;20503;-84
2023/02/12 12:51:34;;;;;;;24.30;18.67;;;10.00;99.90;;;;;;4975425;28;20511;-84
2023/02/12 12:54:18;;;;;;;25.48;22.13;;;9.80;99.90;;;;;;4913617;29;20045;-83
2023/02/12 12:56:47;;;;;;;30.98;26.65;;;9.90;99.90;;;;;;4918374;29;20437;-83
2023/02/12 12:59:28;;;;;;;28.02;24.90;;;10.10;99.90;;;;;;4919133;29;20099;-83
2023/02/12 13:02:02;;;;;;;;;;;10.10;99.90;;;;;;4922166;28;20040;-82
2023/02/12 13:04:48;;;;;;;25.52;22.63;;;10.10;99.90;;;;;;4920495;29;19907;-83